Time;durP1;ratioP1;P1;durP2;ratioP2;P2;SDS_P1;SDS_P2;PMS_P1;PMS_P2;Temp;Humidity;BMP_temperature;BMP_pressure;BME280_temperature;BME280_humidity;BME280_pressure;Samples;Min_cycle;Max_cycle;Signal;HPM_P1;HPM_P2
2023/05/19 00:00:13;;;;;;;;;;;;;;;14.73;92.72;99592.34;344374;28;823;-75
2023/05/19 00:00:23;;;;;;;;;;;;;;;14.73;92.80;99587.09;343530;28;1296;-74
2023/05/19 00:00:35;;;;;;;;;;;;;;;14.73;92.45;99584.44;344939;28;1177;-74
2023/05/19 00:00:46;;;;;;;;;;;;;;;14.73;92.59;99592.34;342268;28;1266;-74
2023/05/19 00:00:56;;;;;;;;;;;;;;;14.73;92.37;99581.81;343970;28;1458;-74
2023/05/19 00:01:07;;;;;;;;;;;;;;;14.73;92.39;99589.72;344918;28;1338;-74
2023/05/19 00:01:18;;;;;;;;;;;;;;;14.73;92.67;99597.63;345042;28;872;-74
2023/05/19 00:01:28;;;;;;;;;;;;;;;14.74;92.60;99590.56;343513;28;1694;-74
2023/05/19 00:01:42;;;;;;;;;;;;;;;14.75;92.66;99589.63;342562;28;1979;-74
2023/05/19 00:01:53;;;;;;;;;;;;;;;14.75;92.62;99593.09;344333;28;866;-74
2023/05/19 00:02:04;;;;;;;;;;;;;;;14.75;92.59;99592.25;343739;28;738;-74
2023/05/19 00:02:14;;;;;;;;;;;;;;;14.74;92.63;99585.28;343634;28;857;-74
2023/05/19 00:02:25;;;;;;;;;;;;;;;14.74;92.71;99591.41;346145;28;1504;-74
2023/05/19 00:02:38;;;;;;;;;;;;;;;14.73;92.67;99589.72;346178;28;1304;-74
2023/05/19 00:02:48;;;;;;;;;;;;;;;14.73;92.46;99594.97;344871;28;1676;-74
2023/05/19 00:02:59;;;;;;;;;;;;;;;14.73;92.58;99588.91;343457;28;1963;-74
2023/05/19 00:03:11;;;;;;;;;;;;;;;14.72;92.71;99585.41;345209;28;1851;-74
2023/05/19 00:03:22;;;;;;;;;;;;;;;14.72;92.89;99590.69;344222;28;1960;-75
2023/05/19 00:03:33;;;;;;;;;;;;;;;14.72;92.81;99595.09;339703;29;905;-74
2023/05/19 00:03:53;;;;;;;;;;;;;;;14.72;92.68;99590.69;341792;28;2312;-75
2023/05/19 00:04:04;;;;;;;;;;;;;;;14.73;92.83;99594.97;337121;29;1239;-75
2023/05/19 00:04:14;;;;;;;;;;;;;;;14.73;92.96;99597.63;338244;29;1373;-75
2023/05/19 00:04:25;;;;;;;;;;;;;;;14.73;93.14;99592.34;338906;29;1526;-75
2023/05/19 00:04:36;;;;;;;;;;;;;;;14.73;93.13;99587.09;336801;29;1594;-75
2023/05/19 00:04:48;;;;;;;;;;;;;;;14.74;93.01;99588.78;335894;29;815;-75
2023/05/19 00:05:00;;;;;;;;;;;;;;;14.73;92.90;99587.09;336270;29;1971;-75
2023/05/19 00:05:13;;;;;;;;;;;;;;;14.73;93.12;99597.63;334098;29;2482;-75
2023/05/19 00:05:24;;;;;;;;;;;;;;;14.74;93.00;99591.41;333624;29;2383;-75
2023/05/19 00:05:35;;;;;;;;;;;;;;;14.75;93.11;99584.34;335830;29;890;-75
2023/05/19 00:05:45;;;;;;;;;;;;;;;14.75;92.84;99589.63;334530;29;1031;-75
2023/05/19 00:05:56;;;;;;;;;;;;;;;14.74;92.94;99588.78;330821;29;2561;-75
2023/05/19 00:06:09;;;;;;;;;;;;;;;14.74;92.96;99587.94;328404;29;1797;-75
2023/05/19 00:06:20;;;;;;;;;;;;;;;14.73;92.90;99587.09;328188;30;1246;-75
2023/05/19 00:06:31;;;;;;;;;;;;;;;14.72;92.75;99588.06;327242;30;789;-75
2023/05/19 00:06:43;;;;;;;;;;;;;;;14.73;92.80;99589.72;327477;30;2214;-75
2023/05/19 00:06:53;;;;;;;;;;;;;;;14.72;92.89;99590.69;328356;29;2230;-75
2023/05/19 00:07:04;;;;;;;;;;;;;;;14.72;92.76;99585.41;330767;29;1207;-74
2023/05/19 00:07:16;;;;;;;;;;;;;;;14.73;92.98;99587.09;331520;29;2704;-74
2023/05/19 00:07:28;;;;;;;;;;;;;;;14.73;92.94;99587.09;328490;29;3184;-75
2023/05/19 00:07:38;;;;;;;;;;;;;;;14.73;92.82;99584.44;328579;29;3347;-74
2023/05/19 00:07:48;;;;;;;;;;;;;;;14.73;93.15;99586.25;328379;30;897;-75
2023/05/19 00:07:59;;;;;;;;;;;;;;;14.74;93.05;99582.66;322275;30;3632;-75
2023/05/19 00:08:10;;;;;;;;;;;;;;;14.73;92.58;99587.09;323755;30;3318;-75
2023/05/19 00:08:21;;;;;;;;;;;;;;;14.73;92.70;99581.81;325971;30;3679;-74
2023/05/19 00:08:31;;;;;;;;;;;;;;;14.75;92.49;99589.63;325559;30;4351;-75
2023/05/19 00:08:41;;;;;;;;;;;;;;;14.75;92.70;99585.22;325572;30;2371;-75
2023/05/19 00:08:55;;;;;;;;;;;;;;;14.75;92.83;99587.84;321873;30;2850;-75
2023/05/19 00:09:08;;;;;;;;;;;;;;;14.75;92.86;99584.34;321569;30;3399;-75
2023/05/19 00:09:19;;;;;;;;;;;;;;;14.73;92.63;99587.09;319841;30;1249;-74
2023/05/19 00:09:30;;;;;;;;;;;;;;;14.73;92.71;99589.72;315923;31;3821;-75
2023/05/19 00:09:40;;;;;;;;;;;;;;;14.74;93.02;99585.28;314439;31;4931;-75
2023/05/19 00:09:50;;;;;;;;;;;;;;;14.73;93.04;99592.34;315085;31;4253;-75
2023/05/19 00:10:01;;;;;;;;;;;;;;;14.74;92.83;99588.78;317687;31;1047;-76
2023/05/19 00:10:11;;;;;;;;;;;;;;;14.75;93.00;99589.63;315383;31;4814;-75
2023/05/19 00:10:21;;;;;;;;;;;;;;;14.75;92.85;99582.56;314428;31;4602;-75
2023/05/19 00:10:32;;;;;;;;;;;;;;;14.74;93.11;99586.16;314186;31;1888;-75
2023/05/19 00:10:42;;;;;;;;;;;;;;;14.74;93.12;99588.78;312347;31;3289;-75
2023/05/19 00:10:53;;;;;;;;;;;;;;;14.75;92.87;99585.22;312176;31;3183;-75
2023/05/19 00:11:03;;;;;;;;;;;;;;;14.74;92.96;99588.78;313148;31;818;-75
2023/05/19 00:11:13;;;;;;;;;;;;;;;14.75;93.12;99587.84;307949;31;4148;-75
2023/05/19 00:11:25;;;;;;;;;;;;;;;14.74;93.04;99587.94;309389;31;4963;-75
2023/05/19 00:11:36;;;;;;;;;;;;;;;14.73;92.90;99587.09;311105;31;5497;-75
2023/05/19 00:11:46;;;;;;;;;;;;;;;14.73;92.86;99583.63;314317;31;1017;-75
2023/05/19 00:11:56;;;;;;;;;;;;;;;14.73;92.84;99581.00;311568;31;6087;-75
2023/05/19 00:12:09;;;;;;;;;;;;;;;14.72;93.01;99592.47;310303;31;6117;-75
2023/05/19 00:12:19;;;;;;;;;;;;;;;14.73;93.09;99587.09;313270;31;822;-75
2023/05/19 00:12:29;;;;;;;;;;;;;;;14.72;93.08;99585.41;306937;31;6278;-75
2023/05/19 00:12:40;;;;;;;;;;;;;;;14.72;92.60;99590.69;307015;31;6186;-75
2023/05/19 00:12:50;;;;;;;;;;;;;;;14.72;92.68;99580.16;307611;31;4522;-75
2023/05/19 00:13:00;;;;;;;;;;;;;;;14.74;92.78;99588.78;306710;32;1061;-75
2023/05/19 00:13:10;;;;;;;;;;;;;;;14.73;92.70;99584.44;305495;32;4623;-75
2023/05/19 00:13:21;;;;;;;;;;;;;;;14.74;92.45;99587.94;304072;32;5625;-75
2023/05/19 00:13:31;;;;;;;;;;;;;;;14.74;92.65;99583.50;302305;32;1102;-77
2023/05/19 00:13:41;;;;;;;;;;;;;;;14.74;92.72;99583.50;299136;32;6230;-75
2023/05/19 00:13:52;;;;;;;;;;;;;;;14.74;92.80;99583.50;295251;33;7526;-75
2023/05/19 00:14:03;;;;;;;;;;;;;;;14.75;92.90;99587.00;294331;33;1205;-75
2023/05/19 00:14:13;;;;;;;;;;;;;;;14.76;92.71;99583.41;294086;33;8363;-75
2023/05/19 00:14:23;;;;;;;;;;;;;;;14.75;92.79;99585.22;293753;33;8573;-75
2023/05/19 00:14:34;;;;;;;;;;;;;;;14.76;92.74;99586.06;295241;33;814;-75
2023/05/19 00:14:45;;;;;;;;;;;;;;;14.76;92.44;99581.63;291889;33;8941;-74
2023/05/19 00:14:55;;;;;;;;;;;;;;;14.76;92.66;99586.91;291318;33;9166;-75
2023/05/19 00:15:06;;;;;;;;;;;;;;;14.75;92.67;99585.22;291817;33;7349;-75
2023/05/19 00:15:16;;;;;;;;;;;;;;;14.75;92.55;99585.22;290339;34;1218;-75
2023/05/19 00:15:29;;;;;;;;;;;;;;;14.76;92.76;99581.63;289097;34;6798;-75
2023/05/19 00:17:12;;;;;;;;;;;;;;;14.75;92.57;99585.22;2504298;27;20345;-75
2023/05/19 00:17:22;;;;;;;;;;;;;;;14.74;92.39;99578.25;354267;27;3418;-76
2023/05/19 00:17:33;;;;;;;;;;;;;;;14.74;92.48;99580.88;352609;28;3932;-75
2023/05/19 00:17:43;;;;;;;;;;;;;;;14.75;92.63;99576.47;350709;28;1493;-75
2023/05/19 00:17:54;;;;;;;;;;;;;;;14.75;92.38;99579.94;349180;28;742;-75
2023/05/19 00:18:04;;;;;;;;;;;;;;;14.75;92.34;99579.94;349034;28;1389;-75
2023/05/19 00:18:15;;;;;;;;;;;;;;;14.75;92.40;99585.22;350487;28;1669;-75
2023/05/19 00:18:28;;;;;;;;;;;;;;;14.76;92.75;99578.16;350577;28;905;-75
2023/05/19 00:18:39;;;;;;;;;;;;;;;14.76;92.77;99581.63;349014;28;1358;-75
2023/05/19 00:18:50;;;;;;;;;;;;;;;14.76;92.54;99573.72;349208;28;859;-75
2023/05/19 00:19:01;;;;;;;;;;;;;;;14.77;92.83;99579.84;349886;28;1402;-75
2023/05/19 00:19:11;;;;;;;;;;;;;;;14.76;92.80;99579.00;350606;28;784;-75
2023/05/19 00:19:23;;;;;;;;;;;;;;;14.76;92.79;99581.63;350497;28;842;-75
2023/05/19 00:19:33;;;;;;;;;;;;;;;14.77;92.60;99580.69;349140;28;827;-74
2023/05/19 00:19:43;;;;;;;;;;;;;;;14.76;92.41;99575.50;349069;28;1192;-75
2023/05/19 00:19:54;;;;;;;;;;;;;;;14.76;92.55;99576.38;346477;28;785;-74
2023/05/19 00:20:06;;;;;;;;;;;;;;;14.75;92.42;99574.66;346423;28;910;-74
2023/05/19 00:20:16;;;;;;;;;;;;;;;14.75;92.41;99579.09;346602;28;926;-74
2023/05/19 00:20:26;;;;;;;;;;;;;;;14.75;92.41;99573.81;346560;28;1345;-75
2023/05/19 00:20:36;;;;;;;;;;;;;;;14.74;92.15;99578.25;350709;28;872;-75
2023/05/19 00:20:47;;;;;;;;;;;;;;;14.75;92.17;99577.31;350334;28;1500;-75
2023/05/19 00:20:57;;;;;;;;;;;;;;;14.75;91.87;99569.41;350680;28;737;-75
2023/05/19 00:21:07;;;;;;;;;;;;;;;14.74;92.09;99578.25;349202;28;1509;-75
2023/05/19 00:21:17;;;;;;;;;;;;;;;14.76;91.76;99579.00;350394;28;872;-75
2023/05/19 00:21:28;;;;;;;;;;;;;;;14.76;91.91;99572.88;349116;28;1390;-74
2023/05/19 00:21:39;;;;;;;;;;;;;;;14.75;92.13;99574.66;349108;28;1233;-76
2023/05/19 00:21:49;;;;;;;;;;;;;;;14.76;92.17;99579.00;346333;28;1212;-75
2023/05/19 00:21:59;;;;;;;;;;;;;;;14.77;92.10;99578.06;347905;28;729;-74
2023/05/19 00:22:09;;;;;;;;;;;;;;;14.78;92.20;99576.28;346288;28;1256;-74
2023/05/19 00:22:20;;;;;;;;;;;;;;;14.77;92.02;99564.88;350310;28;2011;-74
2023/05/19 00:22:30;;;;;;;;;;;;;;;14.76;92.32;99576.38;350501;28;1207;-74
2023/05/19 00:22:42;;;;;;;;;;;;;;;14.77;92.20;99577.22;349100;28;828;-74
2023/05/19 00:22:53;;;;;;;;;;;;;;;14.76;92.39;99571.09;347657;28;1348;-74
2023/05/19 00:23:03;;;;;;;;;;;;;;;14.75;92.30;99572.03;345133;28;1405;-75
2023/05/19 00:23:13;;;;;;;;;;;;;;;14.78;92.27;99582.41;343777;28;924;-75
2023/05/19 00:23:23;;;;;;;;;;;;;;;14.77;92.23;99579.84;343317;28;1428;-74
2023/05/19 00:23:34;;;;;;;;;;;;;;;14.77;92.09;99577.22;344665;28;1173;-74
2023/05/19 00:23:44;;;;;;;;;;;;;;;14.78;92.13;99577.13;345075;28;1327;-74
2023/05/19 00:23:54;;;;;;;;;;;;;;;14.77;92.16;99578.06;345209;28;1186;-74
2023/05/19 00:24:05;;;;;;;;;;;;;;;14.77;92.18;99577.22;344731;28;1526;-75
2023/05/19 00:24:15;;;;;;;;;;;;;;;14.75;92.08;99577.31;347767;28;1294;-76
2023/05/19 00:24:25;;;;;;;;;;;;;;;14.75;91.96;99574.66;346426;28;1216;-75
2023/05/19 00:24:36;;;;;;;;;;;;;;;14.76;91.91;99576.38;344279;28;1189;-75
2023/05/19 00:24:46;;;;;;;;;;;;;;;14.76;92.07;99576.38;343527;28;1201;-75
2023/05/19 00:24:56;;;;;;;;;;;;;;;14.77;91.90;99583.34;347729;28;1282;-75
2023/05/19 00:25:06;;;;;;;;;;;;;;;14.76;92.04;99580.78;348241;28;1344;-75
2023/05/19 00:25:17;;;;;;;;;;;;;;;14.75;91.75;99574.66;347446;28;1483;-75
2023/05/19 00:25:27;;;;;;;;;;;;;;;14.76;92.02;99579.00;343730;28;1204;-75
2023/05/19 00:25:37;;;;;;;;;;;;;;;14.76;91.98;99580.78;341860;28;2062;-75
2023/05/19 00:25:47;;;;;;;;;;;;;;;14.76;92.24;99581.63;341199;28;1657;-75
2023/05/19 00:25:57;;;;;;;;;;;;;;;14.75;92.17;99574.66;342894;28;1734;-75
2023/05/19 00:26:08;;;;;;;;;;;;;;;14.76;92.03;99578.16;344113;28;1327;-75
2023/05/19 00:26:18;;;;;;;;;;;;;;;14.77;91.92;99577.22;344965;28;961;-75
2023/05/19 00:26:28;;;;;;;;;;;;;;;14.75;92.18;99577.31;340746;28;3459;-75
2023/05/19 00:26:39;;;;;;;;;;;;;;;14.75;92.50;99579.94;342403;28;2570;-75
2023/05/19 00:26:49;;;;;;;;;;;;;;;14.74;92.53;99578.25;342104;28;1330;-75
2023/05/19 00:26:59;;;;;;;;;;;;;;;14.74;92.39;99577.38;343173;28;1725;-75
2023/05/19 00:27:10;;;;;;;;;;;;;;;14.73;92.00;99576.53;343525;28;1471;-75
2023/05/19 00:27:20;;;;;;;;;;;;;;;14.73;92.20;99579.19;342724;28;1724;-75
2023/05/19 00:27:30;;;;;;;;;;;;;;;14.73;92.01;99581.81;341487;28;1496;-75
2023/05/19 00:27:40;;;;;;;;;;;;;;;14.72;92.04;99572.25;344458;28;1796;-75
2023/05/19 00:27:51;;;;;;;;;;;;;;;14.74;92.03;99572.13;342921;28;2091;-75
2023/05/19 00:28:01;;;;;;;;;;;;;;;14.74;92.23;99578.25;343250;28;2190;-75
2023/05/19 00:28:12;;;;;;;;;;;;;;;14.74;92.29;99580.88;337362;29;1703;-75
2023/05/19 00:28:22;;;;;;;;;;;;;;;14.74;92.44;99572.97;337084;29;1517;-75
2023/05/19 00:28:32;;;;;;;;;;;;;;;14.74;92.45;99580.03;337160;29;893;-75
2023/05/19 00:28:42;;;;;;;;;;;;;;;14.74;92.53;99578.25;334929;29;1215;-75
2023/05/19 00:28:52;;;;;;;;;;;;;;;14.74;92.48;99580.88;337078;29;1190;-75
2023/05/19 00:29:03;;;;;;;;;;;;;;;14.74;92.59;99578.25;339297;29;1855;-75
2023/05/19 00:29:17;;;;;;;;;;;;;;;14.74;92.75;99572.97;338432;29;1363;-75
2023/05/19 00:29:27;;;;;;;;;;;;;;;14.74;92.58;99583.50;333253;29;1444;-75
2023/05/19 00:29:37;;;;;;;;;;;;;;;14.73;92.73;99571.28;330292;29;2323;-75
2023/05/19 00:29:48;;;;;;;;;;;;;;;14.73;92.58;99581.81;328336;29;2442;-75
2023/05/19 00:29:58;;;;;;;;;;;;;;;14.74;92.57;99577.38;330730;29;1236;-75
2023/05/19 00:30:08;;;;;;;;;;;;;;;14.73;92.45;99576.53;331952;29;2264;-75
2023/05/19 00:30:21;;;;;;;;;;;;;;;14.73;92.47;99584.44;333325;29;2414;-75
2023/05/19 00:30:31;;;;;;;;;;;;;;;14.73;92.43;99581.81;331799;29;1830;-75
2023/05/19 00:30:42;;;;;;;;;;;;;;;14.72;92.34;99580.16;330770;29;807;-75
2023/05/19 00:30:52;;;;;;;;;;;;;;;14.73;92.60;99581.00;331286;29;1406;-75
2023/05/19 00:31:03;;;;;;;;;;;;;;;14.74;92.78;99583.50;331256;29;2103;-75
2023/05/19 00:31:13;;;;;;;;;;;;;;;14.73;92.27;99584.44;327610;30;1397;-75
2023/05/19 00:31:23;;;;;;;;;;;;;;;14.75;92.66;99579.09;329120;29;2437;-75
2023/05/19 00:31:34;;;;;;;;;;;;;;;14.75;92.40;99584.34;330145;29;2730;-75
2023/05/19 00:31:45;;;;;;;;;;;;;;;14.75;92.43;99579.94;327033;30;1322;-75
2023/05/19 00:31:55;;;;;;;;;;;;;;;14.75;92.42;99579.94;329815;29;3306;-75
2023/05/19 00:32:05;;;;;;;;;;;;;;;14.75;92.36;99584.34;327689;30;3504;-75
2023/05/19 00:32:15;;;;;;;;;;;;;;;14.74;92.44;99578.25;321410;30;1261;-75
2023/05/19 00:32:26;;;;;;;;;;;;;;;14.75;92.64;99585.22;318076;30;3135;-75
2023/05/19 00:32:36;;;;;;;;;;;;;;;14.75;92.44;99579.09;320652;30;3366;-75
2023/05/19 00:32:46;;;;;;;;;;;;;;;14.74;92.38;99580.03;320678;30;2870;-74
2023/05/19 00:32:56;;;;;;;;;;;;;;;14.74;92.34;99583.50;322256;30;1286;-74
2023/05/19 00:33:06;;;;;;;;;;;;;;;14.74;92.56;99583.50;323489;30;2249;-74
2023/05/19 00:33:17;;;;;;;;;;;;;;;14.74;92.28;99586.16;321832;30;2909;-74
2023/05/19 00:33:27;;;;;;;;;;;;;;;14.74;92.39;99580.88;321143;30;1193;-74
2023/05/19 00:33:37;;;;;;;;;;;;;;;14.74;92.36;99583.50;321399;30;3680;-74
2023/05/19 00:33:47;;;;;;;;;;;;;;;14.74;92.30;99586.16;320247;30;4260;-74
2023/05/19 00:33:58;;;;;;;;;;;;;;;14.75;92.36;99579.09;318882;31;1274;-75
2023/05/19 00:34:08;;;;;;;;;;;;;;;14.75;92.33;99582.56;318720;30;4624;-74
2023/05/19 00:34:18;;;;;;;;;;;;;;;14.75;92.00;99581.72;317581;30;4571;-74
2023/05/19 00:34:28;;;;;;;;;;;;;;;14.76;91.93;99584.28;319995;30;828;-74
2023/05/19 00:34:39;;;;;;;;;;;;;;;14.76;92.16;99580.78;318851;30;4664;-74
2023/05/19 00:34:49;;;;;;;;;;;;;;;14.75;92.15;99582.56;317452;30;4292;-74
2023/05/19 00:34:59;;;;;;;;;;;;;;;14.75;91.92;99579.09;318842;31;900;-75
2023/05/19 00:35:10;;;;;;;;;;;;;;;14.75;91.68;99585.22;314708;31;3525;-75
2023/05/19 00:35:20;;;;;;;;;;;;;;;14.76;91.90;99576.38;313409;31;3595;-75
2023/05/19 00:35:30;;;;;;;;;;;;;;;14.76;91.75;99576.38;312662;31;3590;-74
2023/05/19 00:35:41;;;;;;;;;;;;;;;14.76;91.96;99573.72;310601;31;4329;-74
2023/05/19 00:35:51;;;;;;;;;;;;;;;14.76;92.13;99580.78;309331;31;5109;-74
2023/05/19 00:36:02;;;;;;;;;;;;;;;14.76;92.11;99581.63;304768;32;5531;-74
2023/05/19 00:36:12;;;;;;;;;;;;;;;14.76;91.93;99579.00;303569;32;820;-74
2023/05/19 00:36:23;;;;;;;;;;;;;;;14.76;92.04;99581.63;303036;32;6453;-74
2023/05/19 00:36:33;;;;;;;;;;;;;;;14.76;92.19;99581.63;302182;32;6403;-74
2023/05/19 00:36:43;;;;;;;;;;;;;;;14.75;91.96;99577.31;301248;32;1355;-75
2023/05/19 00:36:53;;;;;;;;;;;;;;;14.75;92.07;99569.41;299894;32;6107;-75
2023/05/19 00:37:04;;;;;;;;;;;;;;;14.75;91.90;99579.09;297008;33;6140;-75
2023/05/19 00:37:14;;;;;;;;;;;;;;;14.75;91.63;99574.66;296221;33;1283;-75
2023/05/19 00:37:24;;;;;;;;;;;;;;;14.76;91.65;99573.72;296217;32;5007;-74
2023/05/19 00:37:35;;;;;;;;;;;;;;;14.76;91.57;99571.09;293991;33;5329;-74
2023/05/19 00:37:45;;;;;;;;;;;;;;;14.77;91.48;99575.44;296210;33;1458;-74
2023/05/19 00:37:56;;;;;;;;;;;;;;;14.78;91.62;99577.13;296954;33;6593;-75
2023/05/19 00:38:06;;;;;;;;;;;;;;;14.76;91.45;99579.00;295396;33;7265;-75
2023/05/19 00:38:16;;;;;;;;;;;;;;;14.78;91.40;99579.75;293409;33;7784;-75
2023/05/19 00:38:26;;;;;;;;;;;;;;;14.78;91.46;99571.84;291378;34;753;-75
2023/05/19 00:38:37;;;;;;;;;;;;;;;14.78;91.20;99563.09;288591;33;10162;-75
2023/05/19 00:38:47;;;;;;;;;;;;;;;14.78;90.99;99574.50;287318;34;9346;-75
2023/05/19 00:38:57;;;;;;;;;;;;;;;14.77;90.98;99572.78;288408;34;1342;-75
2023/05/19 00:39:07;;;;;;;;;;;;;;;14.79;91.16;99572.72;285423;34;8189;-75
2023/05/19 00:39:18;;;;;;;;;;;;;;;14.80;90.98;99575.25;285660;33;8393;-75
2023/05/19 00:39:28;;;;;;;;;;;;;;;14.79;91.02;99568.28;289781;34;2265;-75
2023/05/19 00:39:38;;;;;;;;;;;;;;;14.79;90.92;99572.72;287436;34;6899;-75
2023/05/19 00:42:04;;;;;;;;;;;;;;;14.80;91.39;99575.25;2500734;27;19937;-75
2023/05/19 00:42:14;;;;;;;;;;;;;;;14.79;91.08;99581.47;356068;27;893;-75
2023/05/19 00:42:25;;;;;;;;;;;;;;;14.79;91.59;99576.19;354713;27;854;-75
2023/05/19 00:42:35;;;;;;;;;;;;;;;14.79;91.21;99576.19;351979;28;1413;-75
2023/05/19 00:42:45;;;;;;;;;;;;;;;14.80;91.28;99580.53;350439;28;1218;-75
2023/05/19 00:42:55;;;;;;;;;;;;;;;14.80;90.87;99575.25;349277;28;1369;-75
2023/05/19 00:43:07;;;;;;;;;;;;;;;14.80;91.37;99580.53;349182;28;868;-75
2023/05/19 00:43:17;;;;;;;;;;;;;;;14.80;91.21;99567.34;349136;28;800;-75
2023/05/19 00:43:29;;;;;;;;;;;;;;;14.80;91.38;99579.66;347799;28;973;-75
2023/05/19 00:43:39;;;;;;;;;;;;;;;14.79;91.29;99576.19;349041;28;1267;-74
2023/05/19 00:43:49;;;;;;;;;;;;;;;14.79;91.26;99578.81;347916;28;824;-74
2023/05/19 00:43:59;;;;;;;;;;;;;;;14.79;91.21;99570.91;347796;28;944;-75
2023/05/19 00:44:10;;;;;;;;;;;;;;;14.79;91.30;99570.06;347899;28;966;-74
2023/05/19 00:44:20;;;;;;;;;;;;;;;14.79;91.38;99576.19;347764;28;784;-74
2023/05/19 00:44:30;;;;;;;;;;;;;;;14.78;91.31;99579.75;347449;28;1462;-75
2023/05/19 00:44:40;;;;;;;;;;;;;;;14.79;91.37;99576.19;346602;28;3707;-75
2023/05/19 00:44:51;;;;;;;;;;;;;;;14.79;91.49;99576.19;345032;28;1326;-75
2023/05/19 00:45:01;;;;;;;;;;;;;;;14.79;91.51;99573.56;345068;28;943;-75
2023/05/19 00:45:11;;;;;;;;;;;;;;;14.80;91.36;99577.03;346721;28;1607;-75
2023/05/19 00:45:21;;;;;;;;;;;;;;;14.79;91.11;99570.91;347204;28;934;-75
2023/05/19 00:45:32;;;;;;;;;;;;;;;14.79;91.20;99568.28;347594;28;1212;-75
2023/05/19 00:45:42;;;;;;;;;;;;;;;14.80;91.25;99577.03;350681;28;1214;-75
2023/05/19 00:45:52;;;;;;;;;;;;;;;14.80;91.20;99564.72;350367;28;939;-75
2023/05/19 00:46:02;;;;;;;;;;;;;;;14.79;91.14;99576.19;351914;28;835;-75
2023/05/19 00:46:12;;;;;;;;;;;;;;;14.79;91.09;99565.66;350336;28;1318;-75
2023/05/19 00:46:23;;;;;;;;;;;;;;;14.80;91.22;99569.13;350434;28;1067;-75
2023/05/19 00:46:33;;;;;;;;;;;;;;;14.80;90.89;99577.03;350519;28;975;-75
2023/05/19 00:46:43;;;;;;;;;;;;;;;14.81;91.17;99569.03;353522;28;1028;-75
2023/05/19 00:46:53;;;;;;;;;;;;;;;14.80;91.01;99567.34;350349;28;1503;-75
2023/05/19 00:47:04;;;;;;;;;;;;;;;14.81;91.02;99579.59;347703;28;1227;-75
2023/05/19 00:47:14;;;;;;;;;;;;;;;14.82;91.18;99572.53;346372;28;1296;-74
2023/05/19 00:47:25;;;;;;;;;;;;;;;14.81;90.95;99569.03;346457;28;810;-74
2023/05/19 00:47:35;;;;;;;;;;;;;;;14.81;91.24;99563.78;347766;28;834;-76
2023/05/19 00:47:45;;;;;;;;;;;;;;;14.82;91.37;99570.75;350403;28;881;-75
2023/05/19 00:47:55;;;;;;;;;;;;;;;14.80;91.16;99567.34;350300;28;1459;-75
2023/05/19 00:48:06;;;;;;;;;;;;;;;14.80;90.78;99569.13;349074;28;1398;-75
2023/05/19 00:48:16;;;;;;;;;;;;;;;14.80;91.13;99577.88;349090;28;1087;-75
2023/05/19 00:48:26;;;;;;;;;;;;;;;14.81;90.92;99576.09;347011;28;812;-75
2023/05/19 00:48:36;;;;;;;;;;;;;;;14.80;91.09;99569.97;347220;28;1769;-75
2023/05/19 00:48:47;;;;;;;;;;;;;;;14.81;90.96;99565.56;349075;28;1366;-75
2023/05/19 00:48:57;;;;;;;;;;;;;;;14.80;91.10;99567.34;348516;28;1183;-75
2023/05/19 00:49:07;;;;;;;;;;;;;;;14.80;90.76;99569.97;346350;28;1370;-75
2023/05/19 00:49:17;;;;;;;;;;;;;;;14.80;90.92;99563.88;346526;28;856;-75
2023/05/19 00:49:28;;;;;;;;;;;;;;;14.80;91.04;99566.50;346547;28;827;-75
2023/05/19 00:49:38;;;;;;;;;;;;;;;14.81;91.12;99569.03;346131;28;1589;-75
2023/05/19 00:49:48;;;;;;;;;;;;;;;14.80;91.15;99562.06;344994;28;1451;-75
2023/05/19 00:49:58;;;;;;;;;;;;;;;14.79;90.75;99560.38;345115;28;1228;-75
2023/05/19 00:50:09;;;;;;;;;;;;;;;14.80;90.97;99575.25;345586;28;1548;-75
2023/05/19 00:50:19;;;;;;;;;;;;;;;14.80;90.98;99567.34;347600;28;1557;-75
2023/05/19 00:50:29;;;;;;;;;;;;;;;14.81;90.74;99562.94;343516;28;1289;-75
2023/05/19 00:50:39;;;;;;;;;;;;;;;14.81;90.91;99569.03;344477;28;1122;-75
2023/05/19 00:50:50;;;;;;;;;;;;;;;14.81;90.67;99563.78;344808;28;1989;-75
2023/05/19 00:51:05;;;;;;;;;;;;;;;14.81;90.89;99568.19;342430;28;1531;-75
2023/05/19 00:51:15;;;;;;;;;;;;;;;14.81;90.92;99571.69;341951;28;1444;-75
2023/05/19 00:51:26;;;;;;;;;;;;;;;14.81;90.98;99570.81;343324;28;1972;-76
2023/05/19 00:51:36;;;;;;;;;;;;;;;14.80;90.59;99562.06;346491;28;781;-75
2023/05/19 00:51:46;;;;;;;;;;;;;;;14.81;90.74;99563.78;346398;28;1214;-75
2023/05/19 00:51:56;;;;;;;;;;;;;;;14.81;91.00;99568.19;345941;28;1375;-75
2023/05/19 00:52:06;;;;;;;;;;;;;;;14.80;90.78;99567.34;343568;28;1949;-75
2023/05/19 00:52:17;;;;;;;;;;;;;;;14.79;90.79;99572.72;342396;28;1011;-75
2023/05/19 00:52:27;;;;;;;;;;;;;;;14.80;91.00;99567.34;341368;28;1935;-75
2023/05/19 00:52:37;;;;;;;;;;;;;;;14.81;91.12;99568.19;340722;28;1354;-75
2023/05/19 00:52:47;;;;;;;;;;;;;;;14.80;91.05;99563.88;338418;29;1395;-75
2023/05/19 00:52:58;;;;;;;;;;;;;;;14.79;90.53;99563.00;338994;29;1996;-75
2023/05/19 00:53:08;;;;;;;;;;;;;;;14.80;90.77;99569.97;336889;29;2076;-75
2023/05/19 00:53:18;;;;;;;;;;;;;;;14.81;90.75;99562.94;335729;29;1422;-75
2023/05/19 00:53:29;;;;;;;;;;;;;;;14.80;90.53;99572.63;334967;29;1531;-75
2023/05/19 00:53:40;;;;;;;;;;;;;;;14.82;90.63;99569.88;335032;29;2348;-74
2023/05/19 00:53:51;;;;;;;;;;;;;;;14.82;90.88;99569.88;338298;29;2682;-74
2023/05/19 00:54:01;;;;;;;;;;;;;;;14.82;90.94;99565.47;335820;29;1264;-74
2023/05/19 00:54:11;;;;;;;;;;;;;;;14.82;90.91;99568.09;334471;29;2138;-74
2023/05/19 00:54:22;;;;;;;;;;;;;;;14.81;91.13;99562.94;333013;29;2308;-74
2023/05/19 00:54:34;;;;;;;;;;;;;;;14.81;90.76;99576.09;333352;29;1559;-74
2023/05/19 00:54:45;;;;;;;;;;;;;;;14.82;90.63;99568.09;333574;29;2332;-74
2023/05/19 00:54:55;;;;;;;;;;;;;;;14.82;90.81;99576.00;331921;29;2118;-74
2023/05/19 00:55:06;;;;;;;;;;;;;;;14.82;90.62;99568.09;333217;29;1288;-74
2023/05/19 00:55:17;;;;;;;;;;;;;;;14.81;90.84;99569.03;334376;29;1254;-74
2023/05/19 00:55:27;;;;;;;;;;;;;;;14.81;90.74;99566.41;333507;29;2560;-74
2023/05/19 00:55:39;;;;;;;;;;;;;;;14.82;90.95;99567.25;331769;29;1914;-75
2023/05/19 00:55:49;;;;;;;;;;;;;;;14.82;90.77;99569.88;331978;29;1046;-75
2023/05/19 00:56:00;;;;;;;;;;;;;;;14.80;91.01;99562.06;331544;29;1282;-75
2023/05/19 00:56:10;;;;;;;;;;;;;;;14.80;90.96;99564.72;331332;29;1978;-75
2023/05/19 00:56:20;;;;;;;;;;;;;;;14.81;91.10;99563.78;329615;30;1013;-75
2023/05/19 00:56:30;;;;;;;;;;;;;;;14.80;90.76;99564.72;331011;29;2454;-74
2023/05/19 00:56:41;;;;;;;;;;;;;;;14.80;91.09;99562.06;330377;29;3138;-74
2023/05/19 00:56:52;;;;;;;;;;;;;;;14.81;90.87;99569.03;329598;30;879;-74
2023/05/19 00:57:03;;;;;;;;;;;;;;;14.80;91.00;99566.50;326195;30;1518;-75
2023/05/19 00:57:13;;;;;;;;;;;;;;;14.81;90.91;99561.13;325557;30;2867;-75
2023/05/19 00:57:24;;;;;;;;;;;;;;;14.80;91.18;99564.72;324699;30;3098;-75
2023/05/19 00:57:35;;;;;;;;;;;;;;;14.81;91.01;99569.03;325889;30;895;-75
2023/05/19 00:57:45;;;;;;;;;;;;;;;14.81;91.08;99562.94;327544;30;3009;-75
2023/05/19 00:57:55;;;;;;;;;;;;;;;14.80;90.78;99562.06;326710;30;2232;-75
2023/05/19 00:58:06;;;;;;;;;;;;;;;14.80;90.92;99567.34;326939;30;1631;-75
2023/05/19 00:58:16;;;;;;;;;;;;;;;14.80;91.09;99567.34;323454;30;1245;-74
2023/05/19 00:58:29;;;;;;;;;;;;;;;14.80;90.83;99564.72;322043;30;2830;-75
2023/05/19 00:58:39;;;;;;;;;;;;;;;14.81;90.97;99563.78;322827;30;3763;-75
2023/05/19 00:58:52;;;;;;;;;;;;;;;14.80;90.93;99562.06;323071;30;1969;-74
2023/05/19 00:59:02;;;;;;;;;;;;;;;14.80;91.05;99567.34;320033;30;972;-74
2023/05/19 00:59:12;;;;;;;;;;;;;;;14.80;90.98;99566.50;318407;30;4121;-74
2023/05/19 00:59:23;;;;;;;;;;;;;;;14.80;90.85;99566.50;317118;31;3812;-74
2023/05/19 00:59:33;;;;;;;;;;;;;;;14.80;90.94;99556.81;317637;31;1235;-74
2023/05/19 00:59:43;;;;;;;;;;;;;;;14.79;90.88;99565.66;314332;31;3985;-74
2023/05/19 00:59:53;;;;;;;;;;;;;;;14.80;90.98;99561.22;313199;31;4133;-74
2023/05/19 01:00:04;;;;;;;;;;;;;;;14.81;91.02;99557.66;312025;31;807;-76
2023/05/19 01:00:15;;;;;;;;;;;;;;;14.80;90.96;99562.06;311361;31;3125;-74
2023/05/19 01:00:25;;;;;;;;;;;;;;;14.80;90.80;99561.22;310002;31;3061;-74
2023/05/19 01:00:35;;;;;;;;;;;;;;;14.79;91.13;99555.09;312114;31;863;-74
2023/05/19 01:00:47;;;;;;;;;;;;;;;14.80;90.91;99566.50;307140;31;3751;-74